sensor_id;sensor_type;location;lat;lon;timestamp;pressure;altitude;pressure_sealevel;temperature
69590;BMP180;56792;50.644;17.984;2024-03-08T00:01:49;100314.40;;;-0.10
69590;BMP180;56792;50.644;17.984;2024-03-08T00:04:20;100315.00;;;-0.10
69590;BMP180;56792;50.644;17.984;2024-03-08T00:06:51;100319.20;;;-0.10
69590;BMP180;56792;50.644;17.984;2024-03-08T00:09:21;100317.80;;;-0.16
69590;BMP180;56792;50.644;17.984;2024-03-08T00:11:52;100315.40;;;-0.10
69590;BMP180;56792;50.644;17.984;2024-03-08T00:14:23;100311.80;;;-0.20
69590;BMP180;56792;50.644;17.984;2024-03-08T00:16:54;100312.20;;;-0.30
69590;BMP180;56792;50.644;17.984;2024-03-08T00:19:25;100311.60;;;-0.32
69590;BMP180;56792;50.644;17.984;2024-03-08T00:21:55;100304.00;;;-0.46
69590;BMP180;56792;50.644;17.984;2024-03-08T00:24:26;100302.20;;;-0.50
69590;BMP180;56792;50.644;17.984;2024-03-08T00:26:58;100303.80;;;-0.50
69590;BMP180;56792;50.644;17.984;2024-03-08T00:29:29;100307.20;;;-0.50
69590;BMP180;56792;50.644;17.984;2024-03-08T00:32:00;100305.80;;;-0.50
69590;BMP180;56792;50.644;17.984;2024-03-08T00:34:30;100305.20;;;-0.50
69590;BMP180;56792;50.644;17.984;2024-03-08T00:37:02;100305.00;;;-0.50
69590;BMP180;56792;50.644;17.984;2024-03-08T00:39:32;100302.00;;;-0.60
69590;BMP180;56792;50.644;17.984;2024-03-08T00:42:03;100303.00;;;-0.66
69590;BMP180;56792;50.644;17.984;2024-03-08T00:44:34;100297.60;;;-0.60
69590;BMP180;56792;50.644;17.984;2024-03-08T00:47:05;100294.40;;;-0.60
69590;BMP180;56792;50.644;17.984;2024-03-08T00:49:36;100289.00;;;-0.68
69590;BMP180;56792;50.644;17.984;2024-03-08T00:52:08;100290.80;;;-0.70
69590;BMP180;56792;50.644;17.984;2024-03-08T00:54:39;100286.40;;;-0.70
69590;BMP180;56792;50.644;17.984;2024-03-08T00:57:10;100290.20;;;-0.70
69590;BMP180;56792;50.644;17.984;2024-03-08T00:59:41;100287.20;;;-0.70
69590;BMP180;56792;50.644;17.984;2024-03-08T01:02:12;100286.40;;;-0.80
69590;BMP180;56792;50.644;17.984;2024-03-08T01:04:43;100286.40;;;-0.80
69590;BMP180;56792;50.644;17.984;2024-03-08T01:07:14;100277.80;;;-0.80
69590;BMP180;56792;50.644;17.984;2024-03-08T01:09:45;100279.00;;;-0.80
69590;BMP180;56792;50.644;17.984;2024-03-08T01:12:16;100281.00;;;-0.80
69590;BMP180;56792;50.644;17.984;2024-03-08T01:14:46;100274.40;;;-0.80
69590;BMP180;56792;50.644;17.984;2024-03-08T01:17:17;100273.00;;;-0.90
69590;BMP180;56792;50.644;17.984;2024-03-08T01:19:48;100268.60;;;-0.90
69590;BMP180;56792;50.644;17.984;2024-03-08T01:22:19;100277.60;;;-0.90
69590;BMP180;56792;50.644;17.984;2024-03-08T01:24:50;100275.80;;;-0.82
69590;BMP180;56792;50.644;17.984;2024-03-08T01:27:21;100270.40;;;-0.86
69590;BMP180;56792;50.644;17.984;2024-03-08T01:29:51;100265.20;;;-0.90
69590;BMP180;56792;50.644;17.984;2024-03-08T01:32:22;100263.00;;;-0.90
69590;BMP180;56792;50.644;17.984;2024-03-08T01:34:53;100258.20;;;-0.92
69590;BMP180;56792;50.644;17.984;2024-03-08T01:37:24;100254.80;;;-1.00
69590;BMP180;56792;50.644;17.984;2024-03-08T01:39:55;100255.80;;;-1.00
69590;BMP180;56792;50.644;17.984;2024-03-08T01:42:26;100251.00;;;-1.00
69590;BMP180;56792;50.644;17.984;2024-03-08T01:44:56;100253.00;;;-1.10
69590;BMP180;56792;50.644;17.984;2024-03-08T01:47:28;100248.80;;;-1.10
69590;BMP180;56792;50.644;17.984;2024-03-08T01:50:00;100245.60;;;-1.10
69590;BMP180;56792;50.644;17.984;2024-03-08T01:52:33;100251.80;;;-1.10
69590;BMP180;56792;50.644;17.984;2024-03-08T01:55:06;100248.20;;;-1.10
69590;BMP180;56792;50.644;17.984;2024-03-08T01:57:37;100242.80;;;-1.10
69590;BMP180;56792;50.644;17.984;2024-03-08T02:00:11;100238.00;;;-1.16
69590;BMP180;56792;50.644;17.984;2024-03-08T02:02:43;100241.60;;;-1.18
69590;BMP180;56792;50.644;17.984;2024-03-08T02:05:15;100237.80;;;-1.20
69590;BMP180;56792;50.644;17.984;2024-03-08T02:07:47;100237.60;;;-1.20
69590;BMP180;56792;50.644;17.984;2024-03-08T02:10:18;100234.20;;;-1.20
69590;BMP180;56792;50.644;17.984;2024-03-08T02:12:50;100235.00;;;-1.20
69590;BMP180;56792;50.644;17.984;2024-03-08T02:15:21;100230.60;;;-1.30
69590;BMP180;56792;50.644;17.984;2024-03-08T02:17:52;100228.80;;;-1.30
69590;BMP180;56792;50.644;17.984;2024-03-08T02:20:23;100231.60;;;-1.30
69590;BMP180;56792;50.644;17.984;2024-03-08T02:22:54;100231.40;;;-1.30
69590;BMP180;56792;50.644;17.984;2024-03-08T02:25:25;100229.60;;;-1.30
69590;BMP180;56792;50.644;17.984;2024-03-08T02:27:56;100229.40;;;-1.30
69590;BMP180;56792;50.644;17.984;2024-03-08T02:30:26;100226.80;;;-1.30
69590;BMP180;56792;50.644;17.984;2024-03-08T02:32:59;100226.00;;;-1.40
69590;BMP180;56792;50.644;17.984;2024-03-08T02:35:30;100226.20;;;-1.40
69590;BMP180;56792;50.644;17.984;2024-03-08T02:38:01;100228.60;;;-1.40
69590;BMP180;56792;50.644;17.984;2024-03-08T02:40:33;100226.20;;;-1.50
69590;BMP180;56792;50.644;17.984;2024-03-08T02:43:04;100226.20;;;-1.50
69590;BMP180;56792;50.644;17.984;2024-03-08T02:45:35;100223.80;;;-1.60
69590;BMP180;56792;50.644;17.984;2024-03-08T02:48:07;100227.00;;;-1.60
69590;BMP180;56792;50.644;17.984;2024-03-08T02:50:39;100228.20;;;-1.60
69590;BMP180;56792;50.644;17.984;2024-03-08T02:53:12;100227.40;;;-1.60
69590;BMP180;56792;50.644;17.984;2024-03-08T02:55:46;100223.00;;;-1.60
69590;BMP180;56792;50.644;17.984;2024-03-08T02:58:17;100221.20;;;-1.54
69590;BMP180;56792;50.644;17.984;2024-03-08T03:00:48;100215.40;;;-1.50
69590;BMP180;56792;50.644;17.984;2024-03-08T03:03:19;100217.40;;;-1.60
69590;BMP180;56792;50.644;17.984;2024-03-08T03:05:51;100217.40;;;-1.54
69590;BMP180;56792;50.644;17.984;2024-03-08T03:08:25;100214.20;;;-1.50
69590;BMP180;56792;50.644;17.984;2024-03-08T03:10:55;100211.80;;;-1.60
69590;BMP180;56792;50.644;17.984;2024-03-08T03:13:27;100209.80;;;-1.50
69590;BMP180;56792;50.644;17.984;2024-03-08T03:15:59;100214.40;;;-1.60
69590;BMP180;56792;50.644;17.984;2024-03-08T03:18:29;100221.00;;;-1.60
69590;BMP180;56792;50.644;17.984;2024-03-08T03:21:02;100220.00;;;-1.60
69590;BMP180;56792;50.644;17.984;2024-03-08T03:23:37;100227.00;;;-1.60
69590;BMP180;56792;50.644;17.984;2024-03-08T03:26:09;100226.20;;;-1.60
69590;BMP180;56792;50.644;17.984;2024-03-08T03:28:41;100217.20;;;-1.60
69590;BMP180;56792;50.644;17.984;2024-03-08T03:31:12;100220.20;;;-1.60
69590;BMP180;56792;50.644;17.984;2024-03-08T03:33:44;100223.60;;;-1.64
69590;BMP180;56792;50.644;17.984;2024-03-08T03:36:15;100223.00;;;-1.70
69590;BMP180;56792;50.644;17.984;2024-03-08T03:38:46;100215.40;;;-1.70
69590;BMP180;56792;50.644;17.984;2024-03-08T03:41:16;100213.20;;;-1.70
69590;BMP180;56792;50.644;17.984;2024-03-08T03:43:47;100214.60;;;-1.70
69590;BMP180;56792;50.644;17.984;2024-03-08T03:46:19;100213.20;;;-1.70
69590;BMP180;56792;50.644;17.984;2024-03-08T03:48:50;100213.20;;;-1.70
69590;BMP180;56792;50.644;17.984;2024-03-08T03:51:21;100217.20;;;-1.70
69590;BMP180;56792;50.644;17.984;2024-03-08T03:53:51;100213.20;;;-1.70
69590;BMP180;56792;50.644;17.984;2024-03-08T03:56:27;100212.20;;;-1.80
69590;BMP180;56792;50.644;17.984;2024-03-08T03:58:58;100213.00;;;-1.90
69590;BMP180;56792;50.644;17.984;2024-03-08T04:01:29;100202.20;;;-1.90
69590;BMP180;56792;50.644;17.984;2024-03-08T04:04:00;100204.00;;;-2.00
69590;BMP180;56792;50.644;17.984;2024-03-08T04:06:31;100202.40;;;-2.00
69590;BMP180;56792;50.644;17.984;2024-03-08T04:09:02;100202.80;;;-2.00
69590;BMP180;56792;50.644;17.984;2024-03-08T04:11:33;100203.40;;;-2.00
69590;BMP180;56792;50.644;17.984;2024-03-08T04:14:04;100205.40;;;-2.00
69590;BMP180;56792;50.644;17.984;2024-03-08T04:16:35;100204.20;;;-2.00
69590;BMP180;56792;50.644;17.984;2024-03-08T04:19:06;100197.60;;;-2.00
69590;BMP180;56792;50.644;17.984;2024-03-08T04:21:38;100195.40;;;-2.00
69590;BMP180;56792;50.644;17.984;2024-03-08T04:24:09;100200.80;;;-2.00
69590;BMP180;56792;50.644;17.984;2024-03-08T04:26:40;100205.60;;;-2.06
69590;BMP180;56792;50.644;17.984;2024-03-08T04:29:10;100208.60;;;-2.02
69590;BMP180;56792;50.644;17.984;2024-03-08T04:31:44;100206.80;;;-2.00
69590;BMP180;56792;50.644;17.984;2024-03-08T04:34:15;100206.60;;;-2.00
69590;BMP180;56792;50.644;17.984;2024-03-08T04:36:45;100205.20;;;-2.00
69590;BMP180;56792;50.644;17.984;2024-03-08T04:39:16;100206.00;;;-1.98
69590;BMP180;56792;50.644;17.984;2024-03-08T04:41:48;100206.40;;;-1.98
69590;BMP180;56792;50.644;17.984;2024-03-08T04:44:20;100205.60;;;-2.00
69590;BMP180;56792;50.644;17.984;2024-03-08T04:46:50;100203.20;;;-2.00
69590;BMP180;56792;50.644;17.984;2024-03-08T04:49:21;100203.40;;;-2.00
69590;BMP180;56792;50.644;17.984;2024-03-08T04:51:52;100205.20;;;-2.00
69590;BMP180;56792;50.644;17.984;2024-03-08T04:54:23;100201.20;;;-2.00
69590;BMP180;56792;50.644;17.984;2024-03-08T04:56:54;100204.20;;;-2.00
69590;BMP180;56792;50.644;17.984;2024-03-08T04:59:25;100202.60;;;-2.00
69590;BMP180;56792;50.644;17.984;2024-03-08T05:01:56;100206.00;;;-2.00
69590;BMP180;56792;50.644;17.984;2024-03-08T05:04:26;100213.60;;;-2.00
69590;BMP180;56792;50.644;17.984;2024-03-08T05:06:58;100212.60;;;-2.10
69590;BMP180;56792;50.644;17.984;2024-03-08T05:09:30;100212.40;;;-2.10
69590;BMP180;56792;50.644;17.984;2024-03-08T05:12:02;100218.40;;;-2.20
69590;BMP180;56792;50.644;17.984;2024-03-08T05:14:33;100217.80;;;-2.20
69590;BMP180;56792;50.644;17.984;2024-03-08T05:17:04;100223.20;;;-2.20
69590;BMP180;56792;50.644;17.984;2024-03-08T05:19:37;100220.20;;;-2.12
69590;BMP180;56792;50.644;17.984;2024-03-08T05:22:08;100216.60;;;-2.10
69590;BMP180;56792;50.644;17.984;2024-03-08T05:24:39;100218.80;;;-2.10
69590;BMP180;56792;50.644;17.984;2024-03-08T05:27:09;100221.00;;;-2.20
69590;BMP180;56792;50.644;17.984;2024-03-08T05:29:40;100222.00;;;-2.20
69590;BMP180;56792;50.644;17.984;2024-03-08T05:32:11;100215.40;;;-2.20
69590;BMP180;56792;50.644;17.984;2024-03-08T05:34:42;100218.60;;;-2.14
69590;BMP180;56792;50.644;17.984;2024-03-08T05:37:14;100222.20;;;-2.20
69590;BMP180;56792;50.644;17.984;2024-03-08T05:39:44;100223.80;;;-2.20
69590;BMP180;56792;50.644;17.984;2024-03-08T05:42:15;100220.40;;;-2.20
69590;BMP180;56792;50.644;17.984;2024-03-08T05:44:46;100216.80;;;-2.20
69590;BMP180;56792;50.644;17.984;2024-03-08T05:47:17;100214.40;;;-2.12
69590;BMP180;56792;50.644;17.984;2024-03-08T05:49:48;100217.80;;;-2.10
69590;BMP180;56792;50.644;17.984;2024-03-08T05:52:18;100224.00;;;-2.10
69590;BMP180;56792;50.644;17.984;2024-03-08T05:54:49;100226.80;;;-2.06
69590;BMP180;56792;50.644;17.984;2024-03-08T05:57:20;100226.00;;;-2.00
69590;BMP180;56792;50.644;17.984;2024-03-08T05:59:52;100225.00;;;-2.00
69590;BMP180;56792;50.644;17.984;2024-03-08T06:02:23;100227.00;;;-2.00
69590;BMP180;56792;50.644;17.984;2024-03-08T06:04:54;100224.40;;;-2.00
69590;BMP180;56792;50.644;17.984;2024-03-08T06:07:25;100232.60;;;-1.90
69590;BMP180;56792;50.644;17.984;2024-03-08T06:09:55;100234.40;;;-1.90
69590;BMP180;56792;50.644;17.984;2024-03-08T06:12:27;100229.40;;;-1.80
69590;BMP180;56792;50.644;17.984;2024-03-08T06:15:02;100235.40;;;-1.80
69590;BMP180;56792;50.644;17.984;2024-03-08T06:17:33;100235.20;;;-1.70
69590;BMP180;56792;50.644;17.984;2024-03-08T06:20:05;100236.00;;;-1.70
69590;BMP180;56792;50.644;17.984;2024-03-08T06:22:40;100241.20;;;-1.60
69590;BMP180;56792;50.644;17.984;2024-03-08T06:25:12;100240.00;;;-1.60
69590;BMP180;56792;50.644;17.984;2024-03-08T06:27:44;100241.80;;;-1.60
69590;BMP180;56792;50.644;17.984;2024-03-08T06:30:17;100237.80;;;-1.50
69590;BMP180;56792;50.644;17.984;2024-03-08T06:32:49;100236.00;;;-1.50
69590;BMP180;56792;50.644;17.984;2024-03-08T06:35:21;100231.00;;;-1.50
69590;BMP180;56792;50.644;17.984;2024-03-08T06:37:52;100231.60;;;-1.40
69590;BMP180;56792;50.644;17.984;2024-03-08T06:40:22;100224.60;;;-1.30
69590;BMP180;56792;50.644;17.984;2024-03-08T06:42:53;100226.60;;;-1.30
69590;BMP180;56792;50.644;17.984;2024-03-08T06:45:24;100230.20;;;-1.20
69590;BMP180;56792;50.644;17.984;2024-03-08T06:47:55;100225.40;;;-1.20
69590;BMP180;56792;50.644;17.984;2024-03-08T06:50:26;100229.20;;;-1.14
69590;BMP180;56792;50.644;17.984;2024-03-08T06:52:57;100232.00;;;-1.10
69590;BMP180;56792;50.644;17.984;2024-03-08T06:55:29;100228.80;;;-1.10
69590;BMP180;56792;50.644;17.984;2024-03-08T06:57:59;100233.20;;;-1.10
69590;BMP180;56792;50.644;17.984;2024-03-08T07:00:30;100232.80;;;-1.10
69590;BMP180;56792;50.644;17.984;2024-03-08T07:03:01;100227.20;;;-1.10
69590;BMP180;56792;50.644;17.984;2024-03-08T07:05:32;100228.60;;;-1.00
69590;BMP180;56792;50.644;17.984;2024-03-08T07:08:05;100224.40;;;-1.00
69590;BMP180;56792;50.644;17.984;2024-03-08T07:10:37;100225.00;;;-0.90
69590;BMP180;56792;50.644;17.984;2024-03-08T07:13:11;100228.60;;;-0.80
69590;BMP180;56792;50.644;17.984;2024-03-08T07:15:42;100225.20;;;-0.80
69590;BMP180;56792;50.644;17.984;2024-03-08T07:18:13;100231.80;;;-0.70
69590;BMP180;56792;50.644;17.984;2024-03-08T07:20:44;100226.60;;;-0.60
69590;BMP180;56792;50.644;17.984;2024-03-08T07:23:15;100226.20;;;-0.58
69590;BMP180;56792;50.644;17.984;2024-03-08T07:26:07;100224.80;;;-0.46
69590;BMP180;56792;50.644;17.984;2024-03-08T07:28:38;100227.00;;;-0.32
69590;BMP180;56792;50.644;17.984;2024-03-08T07:31:08;100226.40;;;-0.30
69590;BMP180;56792;50.644;17.984;2024-03-08T07:33:50;100227.40;;;-0.20
69590;BMP180;56792;50.644;17.984;2024-03-08T07:36:22;100230.20;;;-0.10
69590;BMP180;56792;50.644;17.984;2024-03-08T07:38:53;100225.80;;;0.02
69590;BMP180;56792;50.644;17.984;2024-03-08T07:41:24;100225.00;;;0.10
69590;BMP180;56792;50.644;17.984;2024-03-08T07:43:55;100223.00;;;0.20
69590;BMP180;56792;50.644;17.984;2024-03-08T07:46:26;100222.20;;;0.38
69590;BMP180;56792;50.644;17.984;2024-03-08T07:48:58;100217.80;;;0.42
69590;BMP180;56792;50.644;17.984;2024-03-08T07:51:29;100221.40;;;0.50
69590;BMP180;56792;50.644;17.984;2024-03-08T07:54:00;100219.60;;;0.60
69590;BMP180;56792;50.644;17.984;2024-03-08T07:56:34;100219.00;;;0.64
69590;BMP180;56792;50.644;17.984;2024-03-08T07:59:06;100216.00;;;0.70
69590;BMP180;56792;50.644;17.984;2024-03-08T08:01:37;100217.60;;;0.80
69590;BMP180;56792;50.644;17.984;2024-03-08T08:04:08;100217.00;;;0.90
69590;BMP180;56792;50.644;17.984;2024-03-08T08:06:41;100214.00;;;1.00
69590;BMP180;56792;50.644;17.984;2024-03-08T08:09:12;100211.80;;;1.10
69590;BMP180;56792;50.644;17.984;2024-03-08T08:11:44;100210.20;;;1.20
69590;BMP180;56792;50.644;17.984;2024-03-08T08:14:16;100206.00;;;1.20
69590;BMP180;56792;50.644;17.984;2024-03-08T08:16:47;100211.00;;;1.30
69590;BMP180;56792;50.644;17.984;2024-03-08T08:19:20;100213.20;;;1.40
69590;BMP180;56792;50.644;17.984;2024-03-08T08:21:50;100214.80;;;1.50
69590;BMP180;56792;50.644;17.984;2024-03-08T08:24:21;100220.20;;;1.58
69590;BMP180;56792;50.644;17.984;2024-03-08T08:26:52;100220.40;;;1.70
69590;BMP180;56792;50.644;17.984;2024-03-08T08:29:23;100219.60;;;1.70
69590;BMP180;56792;50.644;17.984;2024-03-08T08:31:54;100220.60;;;1.84
69590;BMP180;56792;50.644;17.984;2024-03-08T08:34:25;100225.40;;;1.90
69590;BMP180;56792;50.644;17.984;2024-03-08T08:36:56;100219.80;;;1.90
69590;BMP180;56792;50.644;17.984;2024-03-08T08:39:26;100223.20;;;1.94
69590;BMP180;56792;50.644;17.984;2024-03-08T08:41:57;100229.40;;;2.00
69590;BMP180;56792;50.644;17.984;2024-03-08T08:44:28;100227.00;;;2.10
69590;BMP180;56792;50.644;17.984;2024-03-08T08:47:00;100222.00;;;2.10
69590;BMP180;56792;50.644;17.984;2024-03-08T08:49:33;100217.20;;;2.20
69590;BMP180;56792;50.644;17.984;2024-03-08T08:52:05;100218.40;;;2.22
69590;BMP180;56792;50.644;17.984;2024-03-08T08:54:37;100214.20;;;2.36
69590;BMP180;56792;50.644;17.984;2024-03-08T08:57:07;100220.60;;;2.46
69590;BMP180;56792;50.644;17.984;2024-03-08T08:59:39;100216.60;;;2.50
69590;BMP180;56792;50.644;17.984;2024-03-08T09:02:10;100214.80;;;2.60
69590;BMP180;56792;50.644;17.984;2024-03-08T09:04:40;100206.80;;;2.70
69590;BMP180;56792;50.644;17.984;2024-03-08T09:07:11;100206.00;;;2.80
69590;BMP180;56792;50.644;17.984;2024-03-08T09:09:44;100198.00;;;3.00
69590;BMP180;56792;50.644;17.984;2024-03-08T09:12:15;100193.80;;;3.12
69590;BMP180;56792;50.644;17.984;2024-03-08T09:14:47;100193.80;;;3.30
69590;BMP180;56792;50.644;17.984;2024-03-08T09:17:18;100194.40;;;3.42
69590;BMP180;56792;50.644;17.984;2024-03-08T09:19:50;100189.40;;;3.54
69590;BMP180;56792;50.644;17.984;2024-03-08T09:22:21;100184.80;;;3.60
69590;BMP180;56792;50.644;17.984;2024-03-08T09:24:51;100187.20;;;3.80
69590;BMP180;56792;50.644;17.984;2024-03-08T09:27:22;100185.80;;;3.90
69590;BMP180;56792;50.644;17.984;2024-03-08T09:29:53;100182.20;;;3.76
69590;BMP180;56792;50.644;17.984;2024-03-08T09:32:24;100180.00;;;3.86
69590;BMP180;56792;50.644;17.984;2024-03-08T09:34:56;100180.40;;;4.00
69590;BMP180;56792;50.644;17.984;2024-03-08T09:37:26;100186.60;;;3.80
69590;BMP180;56792;50.644;17.984;2024-03-08T09:39:57;100185.60;;;3.76
69590;BMP180;56792;50.644;17.984;2024-03-08T09:42:29;100188.00;;;3.70
69590;BMP180;56792;50.644;17.984;2024-03-08T09:45:01;100184.20;;;3.68
69590;BMP180;56792;50.644;17.984;2024-03-08T09:47:33;100182.60;;;3.70
69590;BMP180;56792;50.644;17.984;2024-03-08T09:50:11;100185.60;;;3.60
69590;BMP180;56792;50.644;17.984;2024-03-08T09:52:43;100180.80;;;3.70
69590;BMP180;56792;50.644;17.984;2024-03-08T09:55:18;100183.40;;;3.90
69590;BMP180;56792;50.644;17.984;2024-03-08T09:57:52;100184.40;;;4.14
69590;BMP180;56792;50.644;17.984;2024-03-08T10:00:41;100177.80;;;4.30
69590;BMP180;56792;50.644;17.984;2024-03-08T10:03:11;100180.40;;;4.30
69590;BMP180;56792;50.644;17.984;2024-03-08T10:05:44;100181.40;;;4.28
69590;BMP180;56792;50.644;17.984;2024-03-08T10:08:15;100178.60;;;4.20
69590;BMP180;56792;50.644;17.984;2024-03-08T10:10:46;100177.60;;;4.40
69590;BMP180;56792;50.644;17.984;2024-03-08T10:13:17;100173.20;;;4.70
69590;BMP180;56792;50.644;17.984;2024-03-08T10:15:49;100169.60;;;4.80
69590;BMP180;56792;50.644;17.984;2024-03-08T10:18:20;100172.40;;;4.70
69590;BMP180;56792;50.644;17.984;2024-03-08T10:21:05;100174.00;;;4.50
69590;BMP180;56792;50.644;17.984;2024-03-08T10:23:37;100169.60;;;4.48
69590;BMP180;56792;50.644;17.984;2024-03-08T10:26:16;100168.60;;;4.40
69590;BMP180;56792;50.644;17.984;2024-03-08T10:28:48;100171.20;;;4.40
69590;BMP180;56792;50.644;17.984;2024-03-08T10:31:20;100175.20;;;4.50
69590;BMP180;56792;50.644;17.984;2024-03-08T10:33:51;100171.60;;;4.40
69590;BMP180;56792;50.644;17.984;2024-03-08T10:36:22;100171.20;;;4.40
69590;BMP180;56792;50.644;17.984;2024-03-08T10:38:54;100168.40;;;4.66
69590;BMP180;56792;50.644;17.984;2024-03-08T10:41:31;100171.40;;;4.82
69590;BMP180;56792;50.644;17.984;2024-03-08T10:44:18;100170.60;;;4.82
69590;BMP180;56792;50.644;17.984;2024-03-08T10:47:06;100171.60;;;4.78
69590;BMP180;56792;50.644;17.984;2024-03-08T10:49:49;100164.60;;;4.80
69590;BMP180;56792;50.644;17.984;2024-03-08T10:52:21;100160.80;;;5.16
69590;BMP180;56792;50.644;17.984;2024-03-08T10:54:56;100162.80;;;5.40
69590;BMP180;56792;50.644;17.984;2024-03-08T10:57:27;100162.00;;;5.60
69590;BMP180;56792;50.644;17.984;2024-03-08T10:59:59;100165.20;;;5.80
69590;BMP180;56792;50.644;17.984;2024-03-08T11:02:31;100160.00;;;5.44
69590;BMP180;56792;50.644;17.984;2024-03-08T11:05:05;100154.20;;;5.66
69590;BMP180;56792;50.644;17.984;2024-03-08T11:07:45;100148.60;;;5.80
69590;BMP180;56792;50.644;17.984;2024-03-08T11:10:23;100146.00;;;5.98
69590;BMP180;56792;50.644;17.984;2024-03-08T11:12:53;100149.00;;;5.90
69590;BMP180;56792;50.644;17.984;2024-03-08T11:15:27;100142.80;;;6.00
69590;BMP180;56792;50.644;17.984;2024-03-08T11:18:01;100139.20;;;6.20
69590;BMP180;56792;50.644;17.984;2024-03-08T11:20:32;100139.60;;;6.06
69590;BMP180;56792;50.644;17.984;2024-03-08T11:23:07;100137.60;;;6.10
69590;BMP180;56792;50.644;17.984;2024-03-08T11:25:40;100136.80;;;6.30
69590;BMP180;56792;50.644;17.984;2024-03-08T11:28:19;100130.40;;;6.50
69590;BMP180;56792;50.644;17.984;2024-03-08T11:31:26;100132.20;;;6.74
69590;BMP180;56792;50.644;17.984;2024-03-08T11:33:58;100130.80;;;6.94
69590;BMP180;56792;50.644;17.984;2024-03-08T11:36:29;100126.00;;;7.00
69590;BMP180;56792;50.644;17.984;2024-03-08T11:39:05;100123.40;;;7.02
69590;BMP180;56792;50.644;17.984;2024-03-08T11:41:44;100118.00;;;7.20
69590;BMP180;56792;50.644;17.984;2024-03-08T11:44:16;100118.00;;;7.20
69590;BMP180;56792;50.644;17.984;2024-03-08T11:46:47;100118.20;;;7.10
69590;BMP180;56792;50.644;17.984;2024-03-08T11:49:18;100113.00;;;7.20
69590;BMP180;56792;50.644;17.984;2024-03-08T11:51:52;100112.20;;;7.10
69590;BMP180;56792;50.644;17.984;2024-03-08T11:54:24;100110.40;;;7.20
69590;BMP180;56792;50.644;17.984;2024-03-08T11:56:55;100106.80;;;7.20
69590;BMP180;56792;50.644;17.984;2024-03-08T11:59:30;100107.80;;;7.10
69590;BMP180;56792;50.644;17.984;2024-03-08T12:02:05;100108.00;;;7.20
69590;BMP180;56792;50.644;17.984;2024-03-08T12:04:36;100097.00;;;7.16
69590;BMP180;56792;50.644;17.984;2024-03-08T12:07:10;100097.20;;;7.10
69590;BMP180;56792;50.644;17.984;2024-03-08T12:09:43;100091.80;;;7.00
69590;BMP180;56792;50.644;17.984;2024-03-08T12:12:16;100093.80;;;7.00
69590;BMP180;56792;50.644;17.984;2024-03-08T12:14:47;100088.00;;;7.10
69590;BMP180;56792;50.644;17.984;2024-03-08T12:17:18;100085.80;;;7.00
69590;BMP180;56792;50.644;17.984;2024-03-08T12:19:50;100085.40;;;7.00
69590;BMP180;56792;50.644;17.984;2024-03-08T12:22:30;100081.00;;;7.10
69590;BMP180;56792;50.644;17.984;2024-03-08T12:25:09;100080.40;;;7.10
69590;BMP180;56792;50.644;17.984;2024-03-08T12:27:42;100078.00;;;7.18
69590;BMP180;56792;50.644;17.984;2024-03-08T12:30:25;100074.40;;;7.24
69590;BMP180;56792;50.644;17.984;2024-03-08T12:32:59;100071.80;;;7.20
69590;BMP180;56792;50.644;17.984;2024-03-08T12:35:31;100065.20;;;7.30
69590;BMP180;56792;50.644;17.984;2024-03-08T12:38:03;100061.80;;;7.30
69590;BMP180;56792;50.644;17.984;2024-03-08T12:40:46;100057.00;;;7.20
69590;BMP180;56792;50.644;17.984;2024-03-08T12:43:17;100057.00;;;7.20
69590;BMP180;56792;50.644;17.984;2024-03-08T12:45:48;100059.60;;;7.16
69590;BMP180;56792;50.644;17.984;2024-03-08T12:48:19;100057.60;;;7.30
69590;BMP180;56792;50.644;17.984;2024-03-08T12:50:50;100051.20;;;7.26
69590;BMP180;56792;50.644;17.984;2024-03-08T12:53:21;100050.60;;;7.20
69590;BMP180;56792;50.644;17.984;2024-03-08T12:55:55;100049.40;;;7.06
69590;BMP180;56792;50.644;17.984;2024-03-08T12:58:26;100045.80;;;6.60
69590;BMP180;56792;50.644;17.984;2024-03-08T13:00:57;100039.00;;;6.90
69590;BMP180;56792;50.644;17.984;2024-03-08T13:03:28;100036.60;;;7.20
69590;BMP180;56792;50.644;17.984;2024-03-08T13:06:00;100033.40;;;7.10
69590;BMP180;56792;50.644;17.984;2024-03-08T13:08:31;100031.40;;;7.30
69590;BMP180;56792;50.644;17.984;2024-03-08T13:11:05;100032.80;;;7.40
69590;BMP180;56792;50.644;17.984;2024-03-08T13:13:36;100025.60;;;7.50
69590;BMP180;56792;50.644;17.984;2024-03-08T13:16:10;100027.80;;;7.50
69590;BMP180;56792;50.644;17.984;2024-03-08T13:18:44;100026.40;;;7.50
69590;BMP180;56792;50.644;17.984;2024-03-08T13:21:18;100024.00;;;7.50
69590;BMP180;56792;50.644;17.984;2024-03-08T13:23:53;100015.00;;;7.50
69590;BMP180;56792;50.644;17.984;2024-03-08T13:26:24;100015.80;;;7.60
69590;BMP180;56792;50.644;17.984;2024-03-08T13:29:01;100013.20;;;7.50
69590;BMP180;56792;50.644;17.984;2024-03-08T13:31:32;100005.00;;;7.40
69590;BMP180;56792;50.644;17.984;2024-03-08T13:34:05;100003.60;;;7.40
69590;BMP180;56792;50.644;17.984;2024-03-08T13:36:37;100004.60;;;7.40
69590;BMP180;56792;50.644;17.984;2024-03-08T13:39:13;100001.00;;;7.40
69590;BMP180;56792;50.644;17.984;2024-03-08T13:41:45;99997.60;;;7.40
69590;BMP180;56792;50.644;17.984;2024-03-08T13:44:16;99996.00;;;7.50
69590;BMP180;56792;50.644;17.984;2024-03-08T13:46:49;99991.00;;;7.50
69590;BMP180;56792;50.644;17.984;2024-03-08T13:49:20;99992.60;;;7.44
69590;BMP180;56792;50.644;17.984;2024-03-08T13:51:51;99990.20;;;7.30
69590;BMP180;56792;50.644;17.984;2024-03-08T13:54:23;99988.20;;;7.02
69590;BMP180;56792;50.644;17.984;2024-03-08T13:56:56;99985.20;;;7.10
69590;BMP180;56792;50.644;17.984;2024-03-08T13:59:27;99989.80;;;7.20
69590;BMP180;56792;50.644;17.984;2024-03-08T14:01:59;99984.00;;;7.20
69590;BMP180;56792;50.644;17.984;2024-03-08T14:04:31;99987.80;;;7.30
69590;BMP180;56792;50.644;17.984;2024-03-08T14:07:04;99979.60;;;7.40
69590;BMP180;56792;50.644;17.984;2024-03-08T14:09:39;99982.20;;;7.40
69590;BMP180;56792;50.644;17.984;2024-03-08T14:12:12;99976.00;;;7.10
69590;BMP180;56792;50.644;17.984;2024-03-08T14:14:45;99968.00;;;7.10
69590;BMP180;56792;50.644;17.984;2024-03-08T14:17:15;99969.40;;;7.00
69590;BMP180;56792;50.644;17.984;2024-03-08T14:19:47;99972.40;;;7.00